Terminal Aerodrome Forecast
Issued by NWS Upton, NY

Home | Current Version | Previous Version | Text Only | Print | Product List | Glossary On
Versions: 1 2 3 4 5 6 7 8 9 10 11 12 13 14 15 16 17 18 19 20 21 22 23 24 25 26 27 28
102
FTUS41 KOKX 261120
TAFISP
TAF
KISP 261120Z 2612/2712 06006KT P6SM FEW250
     FM261500 16009KT P6SM FEW250
     FM262000 18010G19KT P6SM SCT050 SCT250
     FM270200 19012G19KT P6SM BKN050
     FM270700 21012KT 2SM SHRA BR BKN008 OVC015=

USA.gov is the U.S. government's official web portal to all federal, state and local government web resources and services.